Aviation Digital Data Service (ADDS)

Output produced by METARs form (2248 UTC 15 February 2019)
found at http://www.aviationweather.gov/metar/data/
 
METAR text: ORMM 152200Z 26012KT 8000 NSC 16/14 Q1015 NOSIG
Conditions at: ORMM (BASRAH/MAGAL , IQ) observed 2200 UTC 15 February 2019
Temperature: 16.0°C (61°F)
Dewpoint: 14.0°C (57°F) [RH = 88%]
Pressure (altimeter): 29.97 inches Hg (1015.0 mb)
Winds: from the W (260 degrees) at 14 MPH (12 knots; 6.2 m/s)
Visibility: 5 miles ( 8 km)
Ceiling: at least 12,000 feet AGL
Clouds: sky clear below 12,000 feet AGL
Weather: no significant weather observed at this time

METAR text: ORMM 152100Z 15008KT 8000 NSC 17/14 Q1014 NOSIG
Conditions at: ORMM (BASRAH/MAGAL , IQ) observed 2100 UTC 15 February 2019
Temperature: 17.0°C (63°F)
Dewpoint: 14.0°C (57°F) [RH = 82%]
Pressure (altimeter): 29.94 inches Hg (1014.0 mb)
Winds: from the SSE (150 degrees) at 9 MPH (8 knots; 4.1 m/s)
Visibility: 5 miles ( 8 km)
Ceiling: at least 12,000 feet AGL
Clouds: sky clear below 12,000 feet AGL
Weather: no significant weather observed at this time

METAR text: ORMM 152000Z 15012KT 9000 NSC 17/14 Q1015 NOSIG
Conditions at: ORMM (BASRAH/MAGAL , IQ) observed 2000 UTC 15 February 2019
Temperature: 17.0°C (63°F)
Dewpoint: 14.0°C (57°F) [RH = 82%]
Pressure (altimeter): 29.97 inches Hg (1015.0 mb)
Winds: from the SSE (150 degrees) at 14 MPH (12 knots; 6.2 m/s)
Visibility: 6 miles ( 9 km)
Ceiling: at least 12,000 feet AGL
Clouds: sky clear below 12,000 feet AGL
Weather: no significant weather observed at this time

METAR text: ORMM 151900Z 15014KT 9000 NSC 17/14 Q1014 NOSIG
Conditions at: ORMM (BASRAH/MAGAL , IQ) observed 1900 UTC 15 February 2019
Temperature: 17.0°C (63°F)
Dewpoint: 14.0°C (57°F) [RH = 82%]
Pressure (altimeter): 29.94 inches Hg (1014.0 mb)
Winds: from the SSE (150 degrees) at 16 MPH (14 knots; 7.2 m/s)
Visibility: 6 miles ( 9 km)
Ceiling: at least 12,000 feet AGL
Clouds: sky clear below 12,000 feet AGL
Weather: no significant weather observed at this time

METAR text: ORMM 151800Z 15021KT 8000 NSC 18/14 Q1014 NOSIG
Conditions at: ORMM (BASRAH/MAGAL , IQ) observed 1800 UTC 15 February 2019
Temperature: 18.0°C (64°F)
Dewpoint: 14.0°C (57°F) [RH = 77%]
Pressure (altimeter): 29.94 inches Hg (1014.0 mb)
Winds: from the SSE (150 degrees) at 24 MPH (21 knots; 10.8 m/s)
Visibility: 5 miles ( 8 km)
Ceiling: at least 12,000 feet AGL
Clouds: sky clear below 12,000 feet AGL
Weather: no significant weather observed at this time

METAR text: ORMM 151700Z 12020KT 7000 NSC 18/13 Q1013 NOSIG
Conditions at: ORMM (BASRAH/MAGAL , IQ) observed 1700 UTC 15 February 2019
Temperature: 18.0°C (64°F)
Dewpoint: 13.0°C (55°F) [RH = 73%]
Pressure (altimeter): 29.91 inches Hg (1013.0 mb)
Winds: from the ESE (120 degrees) at 23 MPH (20 knots; 10.3 m/s)
Visibility: 4 miles ( 7 km)
Ceiling: at least 12,000 feet AGL
Clouds: sky clear below 12,000 feet AGL
Weather: no significant weather observed at this time

METAR text: ORMM 151600Z 13026KT 7000 NSC 18/13 Q1012 NOSIG
Conditions at: ORMM (BASRAH/MAGAL , IQ) observed 1600 UTC 15 February 2019
Temperature: 18.0°C (64°F)
Dewpoint: 13.0°C (55°F) [RH = 73%]
Pressure (altimeter): 29.88 inches Hg (1012.0 mb)
Winds: from the SE (130 degrees) at 30 MPH (26 knots; 13.4 m/s)
Visibility: 4 miles ( 7 km)
Ceiling: at least 12,000 feet AGL
Clouds: sky clear below 12,000 feet AGL
Weather: no significant weather observed at this time

METAR text: ORMM 151500Z 12030KT 4000 BLDU FEW035 18/13 Q1011 NOSIG
Conditions at: ORMM (BASRAH/MAGAL , IQ) observed 1500 UTC 15 February 2019
Temperature: 18.0°C (64°F)
Dewpoint: 13.0°C (55°F) [RH = 73%]
Pressure (altimeter): 29.85 inches Hg (1011.0 mb)
Winds: from the ESE (120 degrees) at 34 MPH (30 knots; 15.4 m/s)
Visibility: 2.49 miles (4.01 km)
Ceiling: at least 12,000 feet AGL
Clouds: few clouds at 3500 feet AGL
Weather: BLDU  (blowing dust)

METAR text: ORMM 151400Z 13031KT 6000 FEW035SCT100 20/14 Q1011 NOSIG
Conditions at: ORMM (BASRAH/MAGAL , IQ) observed 1400 UTC 15 February 2019
Temperature: 20.0°C (68°F)
Dewpoint: 14.0°C (57°F) [RH = 68%]
Pressure (altimeter): 29.85 inches Hg (1011.0 mb)
Winds: from the SE (130 degrees) at 36 MPH (31 knots; 15.9 m/s)
Visibility: 4 miles ( 6 km)
Ceiling: at least 12,000 feet AGL
Clouds: scattered clouds at 10000 feet AGL
Weather: no significant weather observed at this time

METAR text: ORMM 151300Z 12030KT 6000 FEW035 21/13 Q1011 NOSIG
Conditions at: ORMM (BASRAH/MAGAL , IQ) observed 1300 UTC 15 February 2019
Temperature: 21.0°C (70°F)
Dewpoint: 13.0°C (55°F) [RH = 60%]
Pressure (altimeter): 29.85 inches Hg (1011.0 mb)
Winds: from the ESE (120 degrees) at 34 MPH (30 knots; 15.4 m/s)
Visibility: 4 miles ( 6 km)
Ceiling: at least 12,000 feet AGL
Clouds: few clouds at 3500 feet AGL
Weather: no significant weather observed at this time

METAR text: ORMM 151200Z 13026KT 8000 FEW035 22/12 Q1011 NOSIG
Conditions at: ORMM (BASRAH/MAGAL , IQ) observed 1200 UTC 15 February 2019
Temperature: 22.0°C (72°F)
Dewpoint: 12.0°C (54°F) [RH = 53%]
Pressure (altimeter): 29.85 inches Hg (1011.0 mb)
Winds: from the SE (130 degrees) at 30 MPH (26 knots; 13.4 m/s)
Visibility: 5 miles ( 8 km)
Ceiling: at least 12,000 feet AGL
Clouds: few clouds at 3500 feet AGL
Weather: no significant weather observed at this time

METAR text: ORMM 151100Z 13026KT 6000 FEW035 23/13 Q1011 NOSIG
Conditions at: ORMM (BASRAH/MAGAL , IQ) observed 1100 UTC 15 February 2019
Temperature: 23.0°C (73°F)
Dewpoint: 13.0°C (55°F) [RH = 53%]
Pressure (altimeter): 29.85 inches Hg (1011.0 mb)
Winds: from the SE (130 degrees) at 30 MPH (26 knots; 13.4 m/s)
Visibility: 4 miles ( 6 km)
Ceiling: at least 12,000 feet AGL
Clouds: few clouds at 3500 feet AGL
Weather: no significant weather observed at this time

METAR text: ORMM 151000Z 13030KT 6000 NSC 23/12 Q1012 NOSIG
Conditions at: ORMM (BASRAH/MAGAL , IQ) observed 1000 UTC 15 February 2019
Temperature: 23.0°C (73°F)
Dewpoint: 12.0°C (54°F) [RH = 50%]
Pressure (altimeter): 29.88 inches Hg (1012.0 mb)
Winds: from the SE (130 degrees) at 34 MPH (30 knots; 15.4 m/s)
Visibility: 4 miles ( 6 km)
Ceiling: at least 12,000 feet AGL
Clouds: sky clear below 12,000 feet AGL
Weather: no significant weather observed at this time

METAR text: ORMM 150900Z 12030KT 9999 FEW035 22/12 Q1013 NOSIG
Conditions at: ORMM (BASRAH/MAGAL , IQ) observed 0900 UTC 15 February 2019
Temperature: 22.0°C (72°F)
Dewpoint: 12.0°C (54°F) [RH = 53%]
Pressure (altimeter): 29.91 inches Hg (1013.0 mb)
Winds: from the ESE (120 degrees) at 34 MPH (30 knots; 15.4 m/s)
Visibility: 6 or more miles (10+ km)
Ceiling: at least 12,000 feet AGL
Clouds: few clouds at 3500 feet AGL
Weather: no significant weather observed at this time

METAR text: ORMM 150800Z 12027KT 9999 FEW035 21/15 Q1013 NOSIG
Conditions at: ORMM (BASRAH/MAGAL , IQ) observed 0800 UTC 15 February 2019
Temperature: 21.0°C (70°F)
Dewpoint: 15.0°C (59°F) [RH = 69%]
Pressure (altimeter): 29.91 inches Hg (1013.0 mb)
Winds: from the ESE (120 degrees) at 31 MPH (27 knots; 13.9 m/s)
Visibility: 6 or more miles (10+ km)
Ceiling: at least 12,000 feet AGL
Clouds: few clouds at 3500 feet AGL
Weather: no significant weather observed at this time

METAR text: ORMM 150600Z 11020KT 8000 FEW035 19/15 Q1014 NOSIG
Conditions at: ORMM (BASRAH/MAGAL , IQ) observed 0600 UTC 15 February 2019
Temperature: 19.0°C (66°F)
Dewpoint: 15.0°C (59°F) [RH = 78%]
Pressure (altimeter): 29.94 inches Hg (1014.0 mb)
Winds: from the ESE (110 degrees) at 23 MPH (20 knots; 10.3 m/s)
Visibility: 5 miles ( 8 km)
Ceiling: at least 12,000 feet AGL
Clouds: few clouds at 3500 feet AGL
Weather: no significant weather observed at this time

METAR text: ORMM 150400Z 09016KT 6000 BKN040 16/13 Q1014 NOSIG
Conditions at: ORMM (BASRAH/MAGAL , IQ) observed 0400 UTC 15 February 2019
Temperature: 16.0°C (61°F)
Dewpoint: 13.0°C (55°F) [RH = 82%]
Pressure (altimeter): 29.94 inches Hg (1014.0 mb)
Winds: from the E (90 degrees) at 18 MPH (16 knots; 8.2 m/s)
Visibility: 4 miles ( 6 km)
Ceiling: 4000 feet AGL
Clouds: broken clouds at 4000 feet AGL
Weather: no significant weather observed at this time

METAR text: ORMM 150300Z 08016KT 8000 BKN040 16/13 Q1014 NOSIG
Conditions at: ORMM (BASRAH/MAGAL , IQ) observed 0300 UTC 15 February 2019
Temperature: 16.0°C (61°F)
Dewpoint: 13.0°C (55°F) [RH = 82%]
Pressure (altimeter): 29.94 inches Hg (1014.0 mb)
Winds: from the E (80 degrees) at 18 MPH (16 knots; 8.2 m/s)
Visibility: 5 miles ( 8 km)
Ceiling: 4000 feet AGL
Clouds: broken clouds at 4000 feet AGL
Weather: no significant weather observed at this time

METAR text: ORMM 150200Z 08016KT 9999 FEW040 SCT100 15/12 Q1014 NOSIG
Conditions at: ORMM (BASRAH/MAGAL , IQ) observed 0200 UTC 15 February 2019
Temperature: 15.0°C (59°F)
Dewpoint: 12.0°C (54°F) [RH = 82%]
Pressure (altimeter): 29.94 inches Hg (1014.0 mb)
Winds: from the E (80 degrees) at 18 MPH (16 knots; 8.2 m/s)
Visibility: 6 or more miles (10+ km)
Ceiling: at least 12,000 feet AGL
Clouds: few clouds at 4000 feet AGL
scattered clouds at 10000 feet AGL
Weather: no significant weather observed at this time

METAR text: ORMM 150000Z 10012KT 9999 FEW040 BKN100 16/09 Q1014 NOSIG
Conditions at: ORMM (BASRAH/MAGAL , IQ) observed 0000 UTC 15 February 2019
Temperature: 16.0°C (61°F)
Dewpoint: 9.0°C (48°F) [RH = 63%]
Pressure (altimeter): 29.94 inches Hg (1014.0 mb)
Winds: from the E (100 degrees) at 14 MPH (12 knots; 6.2 m/s)
Visibility: 6 or more miles (10+ km)
Ceiling: 10000 feet AGL
Clouds: few clouds at 4000 feet AGL
broken clouds at 10000 feet AGL
Weather: no significant weather observed at this time

METAR text: ORMM 142300Z 10010KT 9999 FEW040 BKN100 16/10 Q1015 NOSIG
Conditions at: ORMM (BASRAH/MAGAL , IQ) observed 2300 UTC 14 February 2019
Temperature: 16.0°C (61°F)
Dewpoint: 10.0°C (50°F) [RH = 68%]
Pressure (altimeter): 29.97 inches Hg (1015.0 mb)
Winds: from the E (100 degrees) at 12 MPH (10 knots; 5.1 m/s)
Visibility: 6 or more miles (10+ km)
Ceiling: 10000 feet AGL
Clouds: few clouds at 4000 feet AGL
broken clouds at 10000 feet AGL
Weather: no significant weather observed at this time

METAR text: ORMM 142200Z 09010KT 9999 FEW040 BKN100 16/12 Q1016 NOSIG
Conditions at: ORMM (BASRAH/MAGAL , IQ) observed 2200 UTC 14 February 2019
Temperature: 16.0°C (61°F)
Dewpoint: 12.0°C (54°F) [RH = 77%]
Pressure (altimeter): 30.00 inches Hg (1016.0 mb)
Winds: from the E (90 degrees) at 12 MPH (10 knots; 5.1 m/s)
Visibility: 6 or more miles (10+ km)
Ceiling: 10000 feet AGL
Clouds: few clouds at 4000 feet AGL
broken clouds at 10000 feet AGL
Weather: no significant weather observed at this time

METAR text: ORMM 142100Z 09012KT 9999 FEW040 BKN100 16/12 Q1016 NOSIG
Conditions at: ORMM (BASRAH/MAGAL , IQ) observed 2100 UTC 14 February 2019
Temperature: 16.0°C (61°F)
Dewpoint: 12.0°C (54°F) [RH = 77%]
Pressure (altimeter): 30.00 inches Hg (1016.0 mb)
Winds: from the E (90 degrees) at 14 MPH (12 knots; 6.2 m/s)
Visibility: 6 or more miles (10+ km)
Ceiling: 10000 feet AGL
Clouds: few clouds at 4000 feet AGL
broken clouds at 10000 feet AGL
Weather: no significant weather observed at this time

METAR text: ORMM 142000Z 10010KT 9999 BKN040 16/12 Q1017 NOSIG
Conditions at: ORMM (BASRAH/MAGAL , IQ) observed 2000 UTC 14 February 2019
Temperature: 16.0°C (61°F)
Dewpoint: 12.0°C (54°F) [RH = 77%]
Pressure (altimeter): 30.03 inches Hg (1017.0 mb)
Winds: from the E (100 degrees) at 12 MPH (10 knots; 5.1 m/s)
Visibility: 6 or more miles (10+ km)
Ceiling: 4000 feet AGL
Clouds: broken clouds at 4000 feet AGL
Weather: no significant weather observed at this time

METAR text: ORMM 141900Z 11008KT 9999 RA BKN040 16/12 Q1017 NOSIG
Conditions at: ORMM (BASRAH/MAGAL , IQ) observed 1900 UTC 14 February 2019
Temperature: 16.0°C (61°F)
Dewpoint: 12.0°C (54°F) [RH = 77%]
Pressure (altimeter): 30.03 inches Hg (1017.0 mb)
Winds: from the ESE (110 degrees) at 9 MPH (8 knots; 4.1 m/s)
Visibility: 6 or more miles (10+ km)
Ceiling: 4000 feet AGL
Clouds: broken clouds at 4000 feet AGL
Weather: RA  (moderate rain)

METAR text: ORMM 141800Z 07008KT 9999 RA SCT040 BKN100 16/12 Q1017 NOSIG
Conditions at: ORMM (BASRAH/MAGAL , IQ) observed 1800 UTC 14 February 2019
Temperature: 16.0°C (61°F)
Dewpoint: 12.0°C (54°F) [RH = 77%]
Pressure (altimeter): 30.03 inches Hg (1017.0 mb)
Winds: from the ENE (70 degrees) at 9 MPH (8 knots; 4.1 m/s)
Visibility: 6 or more miles (10+ km)
Ceiling: 10000 feet AGL
Clouds: scattered clouds at 4000 feet AGL
broken clouds at 10000 feet AGL
Weather: RA  (moderate rain)

METAR text: ORMM 141700Z 12016KT 9999 SCT040 BKN100 17/11 Q1017 NOSIG
Conditions at: ORMM (BASRAH/MAGAL , IQ) observed 1700 UTC 14 February 2019
Temperature: 17.0°C (63°F)
Dewpoint: 11.0°C (52°F) [RH = 68%]
Pressure (altimeter): 30.03 inches Hg (1017.0 mb)
Winds: from the ESE (120 degrees) at 18 MPH (16 knots; 8.2 m/s)
Visibility: 6 or more miles (10+ km)
Ceiling: 10000 feet AGL
Clouds: scattered clouds at 4000 feet AGL
broken clouds at 10000 feet AGL
Weather: no significant weather observed at this time

METAR text: ORMM 141600Z 12016KT 9999 SCT040 BKN100 16/11 Q1016 NOSIG
Conditions at: ORMM (BASRAH/MAGAL , IQ) observed 1600 UTC 14 February 2019
Temperature: 16.0°C (61°F)
Dewpoint: 11.0°C (52°F) [RH = 72%]
Pressure (altimeter): 30.00 inches Hg (1016.0 mb)
Winds: from the ESE (120 degrees) at 18 MPH (16 knots; 8.2 m/s)
Visibility: 6 or more miles (10+ km)
Ceiling: 10000 feet AGL
Clouds: scattered clouds at 4000 feet AGL
broken clouds at 10000 feet AGL
Weather: no significant weather observed at this time

METAR text: ORMM 141500Z 13016KT 9999 SCT040 BKN100 17/08 Q1016 NOSIG
Conditions at: ORMM (BASRAH/MAGAL , IQ) observed 1500 UTC 14 February 2019
Temperature: 17.0°C (63°F)
Dewpoint: 8.0°C (46°F) [RH = 55%]
Pressure (altimeter): 30.00 inches Hg (1016.0 mb)
Winds: from the SE (130 degrees) at 18 MPH (16 knots; 8.2 m/s)
Visibility: 6 or more miles (10+ km)
Ceiling: 10000 feet AGL
Clouds: scattered clouds at 4000 feet AGL
broken clouds at 10000 feet AGL
Weather: no significant weather observed at this time

METAR text: ORMM 141400Z 12015KT 9999 FEW040 BKN100 19/03 Q1016 NOSIG
Conditions at: ORMM (BASRAH/MAGAL , IQ) observed 1400 UTC 14 February 2019
Temperature: 19.0°C (66°F)
Dewpoint: 3.0°C (37°F) [RH = 34%]
Pressure (altimeter): 30.00 inches Hg (1016.0 mb)
Winds: from the ESE (120 degrees) at 17 MPH (15 knots; 7.7 m/s)
Visibility: 6 or more miles (10+ km)
Ceiling: 10000 feet AGL
Clouds: few clouds at 4000 feet AGL
broken clouds at 10000 feet AGL
Weather: no significant weather observed at this time

METAR text: ORMM 141300Z 10018KT 9999 FEW040 BKN100 19/03 Q1016 NOSIG
Conditions at: ORMM (BASRAH/MAGAL , IQ) observed 1300 UTC 14 February 2019
Temperature: 19.0°C (66°F)
Dewpoint: 3.0°C (37°F) [RH = 34%]
Pressure (altimeter): 30.00 inches Hg (1016.0 mb)
Winds: from the E (100 degrees) at 21 MPH (18 knots; 9.3 m/s)
Visibility: 6 or more miles (10+ km)
Ceiling: 10000 feet AGL
Clouds: few clouds at 4000 feet AGL
broken clouds at 10000 feet AGL
Weather: no significant weather observed at this time

METAR text: ORMM 141200Z 10010KT CAVOK 19/04 Q1017 NOSIG
Conditions at: ORMM (BASRAH/MAGAL , IQ) observed 1200 UTC 14 February 2019
Temperature: 19.0°C (66°F)
Dewpoint: 4.0°C (39°F) [RH = 37%]
Pressure (altimeter): 30.03 inches Hg (1017.0 mb)
Winds: from the E (100 degrees) at 12 MPH (10 knots; 5.1 m/s)
Visibility: 6 or more miles (10+ km)
Ceiling: ceiling and visibility are OK
Clouds: unknown
Weather: no significant weather observed at this time

METAR text: ORMM 141100Z 12010KT CAVOK 20/02 Q1018 NOSIG
Conditions at: ORMM (BASRAH/MAGAL , IQ) observed 1100 UTC 14 February 2019
Temperature: 20.0°C (68°F)
Dewpoint: 2.0°C (36°F) [RH = 30%]
Pressure (altimeter): 30.06 inches Hg (1018.0 mb)
Winds: from the ESE (120 degrees) at 12 MPH (10 knots; 5.1 m/s)
Visibility: 6 or more miles (10+ km)
Ceiling: ceiling and visibility are OK
Clouds: unknown
Weather: no significant weather observed at this time

Forecast for: ORMM (BASRAH/MAGAL , IQ)
Text: TAF ORMM 151600Z 1518/1618 14020KT 8000 NSC
Forecast period: 1800 UTC 15 February 2019 to 0000 UTC 16 February 2019
Forecast type: FROM: standard forecast or significant change
Winds: from the SE (140 degrees) at 23 MPH (20 knots; 10.3 m/s)
Visibility: 5 miles (8 km)
Ceiling: unknown
Clouds: missing
Weather: no significant weather forecast for this period
Text: BECMG 1600/1602 27010KT
Forecast period: 0000 to 1800 UTC 16 February 2019
Forecast type: BECOMING: Conditions expected to become as follows by 0200 UTC 16 February 2019
Winds: from the W (270 degrees) at 12 MPH (10 knots; 5.1 m/s)
Visibility: 5 miles (8 km)
Ceiling: unknown
Clouds: missing
Weather: no significant weather forecast for this period